sensor_id;sensor_type;location;lat;lon;timestamp;temperature;humidity
76838;DHT22;65797;47.352;8.164;2023-04-30T10:02:02;17.90;99.90
76838;DHT22;65797;47.352;8.164;2023-04-30T10:04:38;17.80;99.90
76838;DHT22;65797;47.352;8.164;2023-04-30T10:12:23;18.00;99.90
76838;DHT22;65797;47.352;8.164;2023-04-30T10:17:27;17.20;99.90
76838;DHT22;65797;47.352;8.164;2023-04-30T10:19:58;16.80;99.90
76838;DHT22;65797;47.352;8.164;2023-04-30T10:22:27;16.60;99.90
76838;DHT22;65797;47.352;8.164;2023-04-30T10:24:54;17.10;99.90
76838;DHT22;65797;47.352;8.164;2023-04-30T10:27:21;17.60;99.90
76838;DHT22;65797;47.352;8.164;2023-04-30T10:47:54;17.00;99.90
76838;DHT22;65797;47.352;8.164;2023-04-30T10:50:22;17.30;99.90
76838;DHT22;65797;47.352;8.164;2023-04-30T10:53:04;17.50;99.90
76838;DHT22;65797;47.352;8.164;2023-04-30T10:55:30;17.50;99.90
76838;DHT22;65797;47.352;8.164;2023-04-30T10:57:59;17.30;99.90
76838;DHT22;65797;47.352;8.164;2023-04-30T11:00:27;17.10;99.90
76838;DHT22;65797;47.352;8.164;2023-04-30T11:02:57;16.90;99.90
76838;DHT22;65797;47.352;8.164;2023-04-30T11:05:37;16.90;99.90
76838;DHT22;65797;47.352;8.164;2023-04-30T11:08:04;17.00;99.90
76838;DHT22;65797;47.352;8.164;2023-04-30T11:10:34;17.00;99.90
76838;DHT22;65797;47.352;8.164;2023-04-30T11:13:04;17.00;99.90
76838;DHT22;65797;47.352;8.164;2023-04-30T11:15:43;16.80;99.90
76838;DHT22;65797;47.352;8.164;2023-04-30T11:18:09;17.00;99.90
76838;DHT22;65797;47.352;8.164;2023-04-30T11:20:47;17.10;99.90
76838;DHT22;65797;47.352;8.164;2023-04-30T11:23:14;17.10;99.90
76838;DHT22;65797;47.352;8.164;2023-04-30T11:25:47;17.30;99.90
76838;DHT22;65797;47.352;8.164;2023-04-30T11:28:17;17.30;99.90
76838;DHT22;65797;47.352;8.164;2023-04-30T11:30:50;17.20;99.90
76838;DHT22;65797;47.352;8.164;2023-04-30T11:33:17;17.40;99.90
76838;DHT22;65797;47.352;8.164;2023-04-30T11:35:43;17.40;99.90
76838;DHT22;65797;47.352;8.164;2023-04-30T11:38:11;17.30;99.90
76838;DHT22;65797;47.352;8.164;2023-04-30T11:40:38;17.40;99.90
76838;DHT22;65797;47.352;8.164;2023-04-30T11:43:04;17.40;99.90
76838;DHT22;65797;47.352;8.164;2023-04-30T11:45:30;17.50;99.90
76838;DHT22;65797;47.352;8.164;2023-04-30T11:47:56;17.50;99.90
76838;DHT22;65797;47.352;8.164;2023-04-30T12:05:54;17.30;99.90
76838;DHT22;65797;47.352;8.164;2023-04-30T13:02:36;17.30;99.90
76838;DHT22;65797;47.352;8.164;2023-04-30T13:05:02;17.30;99.90
76838;DHT22;65797;47.352;8.164;2023-04-30T13:10:03;17.40;99.90
76838;DHT22;65797;47.352;8.164;2023-04-30T13:12:31;17.30;99.90
76838;DHT22;65797;47.352;8.164;2023-04-30T19:01:02;15.40;99.90
76838;DHT22;65797;47.352;8.164;2023-04-30T19:03:28;15.40;99.90
76838;DHT22;65797;47.352;8.164;2023-04-30T19:05:55;15.40;99.90
76838;DHT22;65797;47.352;8.164;2023-04-30T19:08:21;15.40;99.90
76838;DHT22;65797;47.352;8.164;2023-04-30T19:10:50;15.40;99.90
76838;DHT22;65797;47.352;8.164;2023-04-30T19:13:17;15.40;99.90
76838;DHT22;65797;47.352;8.164;2023-04-30T19:15:43;15.30;99.90
76838;DHT22;65797;47.352;8.164;2023-04-30T19:18:10;15.30;99.90
76838;DHT22;65797;47.352;8.164;2023-04-30T19:20:38;15.30;99.90
76838;DHT22;65797;47.352;8.164;2023-04-30T19:23:04;15.30;99.90
76838;DHT22;65797;47.352;8.164;2023-04-30T19:25:31;15.20;99.90
76838;DHT22;65797;47.352;8.164;2023-04-30T19:27:56;15.20;99.90
76838;DHT22;65797;47.352;8.164;2023-04-30T19:30:22;15.20;99.90
76838;DHT22;65797;47.352;8.164;2023-04-30T19:32:48;15.20;99.90
76838;DHT22;65797;47.352;8.164;2023-04-30T19:35:14;15.10;99.90
76838;DHT22;65797;47.352;8.164;2023-04-30T19:37:40;15.10;99.90
76838;DHT22;65797;47.352;8.164;2023-04-30T19:40:07;15.10;99.90
76838;DHT22;65797;47.352;8.164;2023-04-30T19:42:35;15.10;99.90
76838;DHT22;65797;47.352;8.164;2023-04-30T19:45:01;15.10;99.90
76838;DHT22;65797;47.352;8.164;2023-04-30T19:47:27;15.10;99.90
76838;DHT22;65797;47.352;8.164;2023-04-30T19:49:53;15.00;99.90
76838;DHT22;65797;47.352;8.164;2023-04-30T19:52:18;15.10;99.90
76838;DHT22;65797;47.352;8.164;2023-04-30T19:54:44;15.10;99.90
76838;DHT22;65797;47.352;8.164;2023-04-30T19:57:13;15.10;99.90
76838;DHT22;65797;47.352;8.164;2023-04-30T19:59:40;15.10;99.90
76838;DHT22;65797;47.352;8.164;2023-04-30T20:02:06;15.00;99.90
76838;DHT22;65797;47.352;8.164;2023-04-30T20:04:32;15.00;99.90
76838;DHT22;65797;47.352;8.164;2023-04-30T20:06:57;15.00;99.90
76838;DHT22;65797;47.352;8.164;2023-04-30T20:09:25;14.90;99.90
76838;DHT22;65797;47.352;8.164;2023-04-30T20:11:51;14.90;99.90
76838;DHT22;65797;47.352;8.164;2023-04-30T20:14:18;14.90;99.90
76838;DHT22;65797;47.352;8.164;2023-04-30T20:16:46;14.90;99.90
76838;DHT22;65797;47.352;8.164;2023-04-30T20:19:18;14.90;99.90
76838;DHT22;65797;47.352;8.164;2023-04-30T20:21:43;14.80;99.90
76838;DHT22;65797;47.352;8.164;2023-04-30T20:24:09;14.90;99.90
76838;DHT22;65797;47.352;8.164;2023-04-30T20:26:36;14.90;99.90
76838;DHT22;65797;47.352;8.164;2023-04-30T20:29:01;14.80;99.90
76838;DHT22;65797;47.352;8.164;2023-04-30T20:36:38;14.70;99.90
76838;DHT22;65797;47.352;8.164;2023-04-30T20:41:40;14.70;99.90
76838;DHT22;65797;47.352;8.164;2023-04-30T20:44:14;14.70;99.90
76838;DHT22;65797;47.352;8.164;2023-04-30T20:46:40;14.70;99.90
76838;DHT22;65797;47.352;8.164;2023-04-30T20:49:07;14.70;99.90
76838;DHT22;65797;47.352;8.164;2023-04-30T20:51:35;14.70;99.90
76838;DHT22;65797;47.352;8.164;2023-04-30T20:59:12;14.60;99.90
76838;DHT22;65797;47.352;8.164;2023-04-30T21:01:38;14.60;99.90
76838;DHT22;65797;47.352;8.164;2023-04-30T21:04:04;14.70;99.90
76838;DHT22;65797;47.352;8.164;2023-04-30T21:06:30;14.70;99.90
76838;DHT22;65797;47.352;8.164;2023-04-30T21:08:58;14.60;99.90
76838;DHT22;65797;47.352;8.164;2023-04-30T21:11:25;14.60;99.90
76838;DHT22;65797;47.352;8.164;2023-04-30T21:13:51;14.60;99.90
76838;DHT22;65797;47.352;8.164;2023-04-30T21:16:17;14.60;99.90
76838;DHT22;65797;47.352;8.164;2023-04-30T21:18:42;14.60;99.90
76838;DHT22;65797;47.352;8.164;2023-04-30T21:31:35;14.40;99.90
76838;DHT22;65797;47.352;8.164;2023-04-30T21:39:12;14.30;1.00
76838;DHT22;65797;47.352;8.164;2023-04-30T21:41:37;14.20;99.90
76838;DHT22;65797;47.352;8.164;2023-04-30T21:44:03;14.10;99.90
76838;DHT22;65797;47.352;8.164;2023-04-30T21:46:29;14.10;99.90
76838;DHT22;65797;47.352;8.164;2023-04-30T21:48:55;14.20;99.90
76838;DHT22;65797;47.352;8.164;2023-04-30T21:51:21;14.20;99.90
76838;DHT22;65797;47.352;8.164;2023-04-30T21:53:46;14.20;99.90
76838;DHT22;65797;47.352;8.164;2023-04-30T21:56:12;14.10;99.90
76838;DHT22;65797;47.352;8.164;2023-04-30T21:58:39;14.10;99.90
76838;DHT22;65797;47.352;8.164;2023-04-30T22:01:05;14.20;99.90
76838;DHT22;65797;47.352;8.164;2023-04-30T22:03:31;14.10;1.00
76838;DHT22;65797;47.352;8.164;2023-04-30T22:05:57;14.10;99.90
76838;DHT22;65797;47.352;8.164;2023-04-30T22:08:23;14.10;1.00
76838;DHT22;65797;47.352;8.164;2023-04-30T22:10:57;14.00;99.90
76838;DHT22;65797;47.352;8.164;2023-04-30T22:13:24;14.00;1.00
76838;DHT22;65797;47.352;8.164;2023-04-30T22:15:50;14.00;1.00
76838;DHT22;65797;47.352;8.164;2023-04-30T22:18:17;13.90;1.00
76838;DHT22;65797;47.352;8.164;2023-04-30T22:20:43;13.90;1.00
76838;DHT22;65797;47.352;8.164;2023-04-30T22:23:08;13.90;1.00
76838;DHT22;65797;47.352;8.164;2023-04-30T22:25:34;13.80;1.00
76838;DHT22;65797;47.352;8.164;2023-04-30T22:28:00;13.80;1.00
76838;DHT22;65797;47.352;8.164;2023-04-30T22:30:26;13.70;1.00
76838;DHT22;65797;47.352;8.164;2023-04-30T22:32:55;13.70;1.00
76838;DHT22;65797;47.352;8.164;2023-04-30T22:35:21;13.60;1.00
76838;DHT22;65797;47.352;8.164;2023-04-30T22:37:48;13.60;1.00
76838;DHT22;65797;47.352;8.164;2023-04-30T22:40:13;13.70;1.00
76838;DHT22;65797;47.352;8.164;2023-04-30T22:42:40;13.60;1.00
76838;DHT22;65797;47.352;8.164;2023-04-30T22:45:07;13.60;1.00
76838;DHT22;65797;47.352;8.164;2023-04-30T22:47:34;13.50;1.00
76838;DHT22;65797;47.352;8.164;2023-04-30T22:50:00;13.50;1.00
76838;DHT22;65797;47.352;8.164;2023-04-30T22:52:27;13.40;99.90
76838;DHT22;65797;47.352;8.164;2023-04-30T22:54:54;13.40;99.90
76838;DHT22;65797;47.352;8.164;2023-04-30T22:57:20;13.40;99.90
76838;DHT22;65797;47.352;8.164;2023-04-30T22:59:49;13.40;1.00
76838;DHT22;65797;47.352;8.164;2023-04-30T23:02:16;13.40;1.00
76838;DHT22;65797;47.352;8.164;2023-04-30T23:04:42;13.40;1.00
76838;DHT22;65797;47.352;8.164;2023-04-30T23:07:07;13.30;1.00
76838;DHT22;65797;47.352;8.164;2023-04-30T23:09:33;13.30;1.00
76838;DHT22;65797;47.352;8.164;2023-04-30T23:11:59;13.30;1.00
76838;DHT22;65797;47.352;8.164;2023-04-30T23:14:26;13.30;1.00
76838;DHT22;65797;47.352;8.164;2023-04-30T23:16:52;13.30;1.00
76838;DHT22;65797;47.352;8.164;2023-04-30T23:19:18;13.30;1.00
76838;DHT22;65797;47.352;8.164;2023-04-30T23:21:43;13.20;1.00
76838;DHT22;65797;47.352;8.164;2023-04-30T23:24:09;13.20;1.00
76838;DHT22;65797;47.352;8.164;2023-04-30T23:26:36;13.20;1.00
76838;DHT22;65797;47.352;8.164;2023-04-30T23:29:02;13.10;1.00
76838;DHT22;65797;47.352;8.164;2023-04-30T23:31:28;13.10;1.00
76838;DHT22;65797;47.352;8.164;2023-04-30T23:33:54;13.10;1.00
76838;DHT22;65797;47.352;8.164;2023-04-30T23:36:20;13.10;1.00
76838;DHT22;65797;47.352;8.164;2023-04-30T23:38:46;13.00;1.00
76838;DHT22;65797;47.352;8.164;2023-04-30T23:41:12;13.00;1.00
76838;DHT22;65797;47.352;8.164;2023-04-30T23:43:38;13.00;1.00
76838;DHT22;65797;47.352;8.164;2023-04-30T23:46:04;13.00;1.00
76838;DHT22;65797;47.352;8.164;2023-04-30T23:48:30;13.00;1.00
76838;DHT22;65797;47.352;8.164;2023-04-30T23:51:01;12.90;1.00
76838;DHT22;65797;47.352;8.164;2023-04-30T23:53:27;12.90;1.00
76838;DHT22;65797;47.352;8.164;2023-04-30T23:55:57;12.90;1.00
76838;DHT22;65797;47.352;8.164;2023-04-30T23:58:27;12.90;1.00
